Rivadavia, Argentina
Current Conditions -  °F | °C
As of 10:00 PM on Wednesday 17 Dec 2014 (Local Time) from SAME Reporting Station
Thunderstorm Thunderstorm  
Wind Chill: 77°   Ceiling: Unl
Heat Index: 78°   Visibility: 6mi
Dew Point: 52°   Wind: 3mph
Humidity: 41%   Direction: 230°SW
Pressure: 29.94"   Gusts: NA
Location:  31.55°S, 68.65°W
Report Text: SAME 180100Z 23003KT 9999 VCTS SCT040FEW045CB 25/11 Q1014
Loading
Personal Weather Stations






























Interactive Weather Map New forecast layout! Learn more

10-Day Weather Forecast

Advertisements
Track Severe Weather on mobile